CheckWX is a tool to help pilots better visualize weather data.  It is not intended as a substitute for an official pre-flight weather briefing.

02:14:44 UTC

KTRM METAR
Jacqueline Cochran Regional Airport
Palm Springs, California, USA
Current

23 mins ago

KTRM 080152Z AUTO 00000KT 9SM FEW070 15/12 A3006 RMK AO2 SLP178 T01500122
Observed
Dec-8 @ 01:52 UTC
Visibility
9 SM
Flight Rules
VFR
Cloud Levels
  • Few at 7,000' AGL
Temperature
15°C / 59°F
Dewpoint
12°C / 54°F
Humidity
82%
Altimeter
30.06" Hg
Pressure
1017.92 hPa
Previous

1 hour ago

KTRM 080052Z AUTO 14005KT 10SM SCT095 BKN110 16/12 A3005 RMK AO2 SLP176 T01610122
Observed
Dec-8 @ 00:52 UTC
Wind
  • 140° at 5 KTS
Visibility
10 SM
Flight Rules
VFR
Cloud Levels
  • Scattered at 9,500' AGL
  • Broken at 11,000' AGL
Temperature
16°C / 61°F
Dewpoint
12°C / 54°F
Humidity
77%
Altimeter
30.05" Hg
Pressure
1017.62 hPa
Previous

2 hours ago

KTRM 072352Z AUTO 14003KT 10SM FEW070 17/13 A3006 RMK AO2 SLP180 T01720128 10189 20167 50000
Observed
Dec-7 @ 23:52 UTC
Wind
  • 140° at 3 KTS
Visibility
10 SM
Flight Rules
VFR
Cloud Levels
  • Few at 7,000' AGL
Temperature
17°C / 63°F
Dewpoint
13°C / 55°F
Humidity
77%
Altimeter
30.06" Hg
Pressure
1017.92 hPa